DXXX/LFW METAR and TAF weather

Enter ICAO airport designator
Station Type Date Time Source
DXXX METAR 2022/01/29 13:00 UTC NOAA

DXXX 291300Z VRB04KT 3500 HZ NSC 35/21 Q1010 NOSIG


Station Type Date Time Source
DXXX Decoded METAR 2022/01/29 13:00 UTC NOAA

Lome, Togo (DXXX) 06-10N 001-15E 25M
Jan 29, 2022 - 08:00 AM EST / 2022.01.29 1300 UTC
Wind: Variable at 5 MPH (4 KT):0
Visibility: 2 mile(s):0
Weather: haze
Temperature: 95 F (35 C)
Heat index: 101.3 F (38.5 C):1
Dew Point: 69 F (21 C)
Relative Humidity: 44%
Pressure (altimeter): 29.83 in. Hg (1010 hPa)
ob: DXXX 291300Z VRB04KT 3500 HZ NSC 35/21 Q1010 NOSIG
cycle: 13

Station Type Date Time Source
DXXX TAF 2022/01/29 12:21 UTC NOAA

TAF COR DXXX 291100Z 2912/3018 02005KT 3500 HZ FEW014
BECMG 2912/2914 18010KT
BECMG 2922/2924 VRB03KT

Example: see airport list